Time,TemperatureF,DewpointF,PressureIn,WindDirection,WindDirectionDegrees,WindSpeedMPH,WindSpeedGustMPH,Humidity,HourlyPrecipIn,Conditions,Clouds,dailyrainin,SolarRadiationWatts/m^2,SoftwareType,DateUTC
2013-01-16 00:12:00,10.0,1.0,-100.00,SE,131,7.0,9.0,67,0.00,,,0.00,0.000000,,2013-01-16 07:12:00,
2013-01-16 00:22:00,10.0,1.0,-100.00,SE,131,7.0,9.0,67,0.00,,,0.00,0.000000,,2013-01-16 07:22:00,
2013-01-16 00:32:00,10.0,1.0,-100.00,SE,131,7.0,9.0,67,0.00,,,0.00,0.000000,,2013-01-16 07:32:00,
2013-01-16 00:42:00,10.0,1.0,-100.00,SE,131,7.0,9.0,67,0.00,,,0.00,0.000000,,2013-01-16 07:42:00,
2013-01-16 01:12:00,11.0,4.0,-100.00,SE,131,4.0,8.0,74,0.00,,,0.00,0.000000,,2013-01-16 08:12:00,
2013-01-16 01:22:00,11.0,4.0,-100.00,SE,131,4.0,8.0,74,0.00,,,0.00,0.000000,,2013-01-16 08:22:00,
2013-01-16 01:32:00,11.0,4.0,-100.00,SE,131,4.0,8.0,74,0.00,,,0.00,0.000000,,2013-01-16 08:32:00,
2013-01-16 01:42:00,11.0,4.0,-100.00,SE,131,4.0,8.0,74,0.00,,,0.00,0.000000,,2013-01-16 08:42:00,
2013-01-16 02:11:00,4.0,-2.0,-100.00,ESE,122,5.0,8.0,77,0.00,,,0.00,0.000000,,2013-01-16 09:11:00,
2013-01-16 02:22:00,4.0,-2.0,-100.00,ESE,122,5.0,8.0,77,0.00,,,0.00,0.000000,,2013-01-16 09:22:00,
2013-01-16 02:32:00,4.0,-2.0,-100.00,ESE,122,5.0,8.0,77,0.00,,,0.00,0.000000,,2013-01-16 09:32:00,
2013-01-16 02:42:00,4.0,-2.0,-100.00,ESE,122,5.0,8.0,77,0.00,,,0.00,0.000000,,2013-01-16 09:42:00,
2013-01-16 03:12:00,6.0,0.0,-100.00,WNW,300,4.0,9.0,74,0.00,,,0.00,0.000000,,2013-01-16 10:12:00,
2013-01-16 03:22:00,6.0,0.0,-100.00,WNW,300,4.0,9.0,74,0.00,,,0.00,0.000000,,2013-01-16 10:22:00,
2013-01-16 03:32:00,6.0,0.0,-100.00,WNW,300,4.0,9.0,74,0.00,,,0.00,0.000000,,2013-01-16 10:32:00,
2013-01-16 03:42:00,6.0,0.0,-100.00,WNW,300,4.0,9.0,74,0.00,,,0.00,0.000000,,2013-01-16 10:42:00,
2013-01-16 04:12:00,6.0,1.0,-100.00,SSE,149,4.0,6.0,78,0.00,,,0.00,0.000000,,2013-01-16 11:12:00,
2013-01-16 04:22:00,6.0,1.0,-100.00,SSE,149,4.0,6.0,78,0.00,,,0.00,0.000000,,2013-01-16 11:22:00,
2013-01-16 04:32:00,6.0,1.0,-100.00,SSE,149,4.0,6.0,78,0.00,,,0.00,0.000000,,2013-01-16 11:32:00,
2013-01-16 04:42:00,6.0,1.0,-100.00,SSE,149,4.0,6.0,78,0.00,,,0.00,0.000000,,2013-01-16 11:42:00,
2013-01-16 05:12:00,11.0,5.0,-100.00,SSE,151,4.0,9.0,76,0.00,,,0.00,0.000000,,2013-01-16 12:12:00,
2013-01-16 05:22:00,11.0,5.0,-100.00,SSE,151,4.0,9.0,76,0.00,,,0.00,0.000000,,2013-01-16 12:22:00,
2013-01-16 05:33:00,11.0,5.0,-100.00,SSE,151,4.0,9.0,76,0.00,,,0.00,0.000000,,2013-01-16 12:33:00,
2013-01-16 05:42:00,11.0,5.0,-100.00,SSE,151,4.0,9.0,76,0.00,,,0.00,0.000000,,2013-01-16 12:42:00,
2013-01-16 06:12:00,3.0,-3.0,-100.00,SE,134,8.0,11.0,76,0.00,,,0.00,0.000000,,2013-01-16 13:12:00,
2013-01-16 06:22:00,3.0,-3.0,-100.00,SE,134,8.0,11.0,76,0.00,,,0.00,0.000000,,2013-01-16 13:22:00,
2013-01-16 06:32:00,3.0,-3.0,-100.00,SE,134,8.0,11.0,76,0.00,,,0.00,0.000000,,2013-01-16 13:32:00,
2013-01-16 06:42:00,3.0,-3.0,-100.00,SE,134,8.0,11.0,76,0.00,,,0.00,0.000000,,2013-01-16 13:42:00,
2013-01-16 07:12:00,8.0,3.0,-100.00,SE,133,7.0,10.0,78,0.00,,,0.00,0.000000,,2013-01-16 14:12:00,
2013-01-16 07:22:00,8.0,3.0,-100.00,SE,133,7.0,10.0,78,0.00,,,0.00,0.000000,,2013-01-16 14:22:00,
2013-01-16 07:32:00,8.0,3.0,-100.00,SE,133,7.0,10.0,78,0.00,,,0.00,0.000000,,2013-01-16 14:32:00,
2013-01-16 07:42:00,8.0,3.0,-100.00,SE,133,7.0,10.0,78,0.00,,,0.00,0.000000,,2013-01-16 14:42:00,
2013-01-16 08:12:00,10.0,4.0,-100.00,SSE,164,1.0,7.0,77,0.00,,,-99.99,4.000000,,2013-01-16 15:12:00,
2013-01-16 08:22:00,10.0,4.0,-100.00,SSE,164,1.0,7.0,77,0.00,,,-99.99,4.000000,,2013-01-16 15:22:00,
2013-01-16 08:32:00,10.0,4.0,-100.00,SSE,164,1.0,7.0,77,0.00,,,-99.99,4.000000,,2013-01-16 15:32:00,
2013-01-16 08:42:00,10.0,4.0,-100.00,SSE,164,1.0,7.0,77,0.00,,,-99.99,4.000000,,2013-01-16 15:42:00,
2013-01-16 09:12:00,18.0,3.0,-100.00,SSE,162,2.0,4.0,51,0.00,,,0.00,85.000000,,2013-01-16 16:12:00,
2013-01-16 09:22:00,18.0,3.0,-100.00,SSE,162,2.0,4.0,51,0.00,,,0.00,85.000000,,2013-01-16 16:22:00,
2013-01-16 09:32:00,18.0,3.0,-100.00,SSE,162,2.0,4.0,51,0.00,,,0.00,85.000000,,2013-01-16 16:32:00,
2013-01-16 09:42:00,18.0,3.0,-100.00,SSE,162,2.0,4.0,51,0.00,,,0.00,85.000000,,2013-01-16 16:42:00,
2013-01-16 10:12:00,20.0,3.0,-100.00,NE,38,3.0,7.0,47,0.00,,,0.00,261.000000,,2013-01-16 17:12:00,
2013-01-16 10:22:00,20.0,3.0,-100.00,NE,38,3.0,7.0,47,0.00,,,0.00,261.000000,,2013-01-16 17:22:00,
2013-01-16 10:33:00,20.0,3.0,-100.00,NE,38,3.0,7.0,47,0.00,,,0.00,261.000000,,2013-01-16 17:33:00,
2013-01-16 10:43:00,20.0,3.0,-100.00,NE,38,3.0,7.0,47,0.00,,,0.00,261.000000,,2013-01-16 17:43:00,
2013-01-16 11:12:00,25.0,5.0,-100.00,NE,54,3.0,8.0,42,0.00,,,0.00,408.000000,,2013-01-16 18:12:00,
2013-01-16 11:22:00,25.0,5.0,-100.00,NE,54,3.0,8.0,42,0.00,,,0.00,408.000000,,2013-01-16 18:22:00,
2013-01-16 11:33:00,25.0,5.0,-100.00,NE,54,3.0,8.0,42,0.00,,,0.00,408.000000,,2013-01-16 18:33:00,
2013-01-16 11:42:00,25.0,5.0,-100.00,NE,54,3.0,8.0,42,0.00,,,0.00,408.000000,,2013-01-16 18:42:00,
2013-01-16 12:12:00,29.0,6.0,-100.00,North,3,4.0,8.0,37,0.00,,,0.00,525.000000,,2013-01-16 19:12:00,
2013-01-16 12:23:00,29.0,6.0,-100.00,North,3,4.0,8.0,37,0.00,,,0.00,525.000000,,2013-01-16 19:23:00,
2013-01-16 12:33:00,29.0,6.0,-100.00,North,3,4.0,8.0,37,0.00,,,0.00,525.000000,,2013-01-16 19:33:00,
2013-01-16 12:42:00,29.0,6.0,-100.00,North,3,4.0,8.0,37,0.00,,,0.00,525.000000,,2013-01-16 19:42:00,
2013-01-16 13:12:00,30.0,7.0,-100.00,ENE,60,3.0,8.0,37,0.01,,,0.01,575.000000,,2013-01-16 20:12:00,
2013-01-16 13:23:00,30.0,7.0,-100.00,ENE,60,3.0,8.0,37,0.01,,,0.01,575.000000,,2013-01-16 20:23:00,
2013-01-16 13:33:00,30.0,7.0,-100.00,ENE,60,3.0,8.0,37,0.01,,,0.01,575.000000,,2013-01-16 20:33:00,
2013-01-16 13:42:00,30.0,7.0,-100.00,ENE,60,3.0,8.0,37,0.01,,,0.01,575.000000,,2013-01-16 20:42:00,
2013-01-16 14:12:00,31.0,8.0,-100.00,NE,50,5.0,9.0,38,0.02,,,0.03,558.000000,,2013-01-16 21:12:00,
2013-01-16 14:22:00,31.0,8.0,-100.00,NE,50,5.0,9.0,38,0.02,,,0.03,558.000000,,2013-01-16 21:22:00,
2013-01-16 14:33:00,31.0,8.0,-100.00,NE,50,5.0,9.0,38,0.02,,,0.03,558.000000,,2013-01-16 21:33:00,
2013-01-16 14:42:00,31.0,8.0,-100.00,NE,50,5.0,9.0,38,0.02,,,0.03,558.000000,,2013-01-16 21:42:00,
2013-01-16 15:12:00,33.0,10.0,-100.00,NE,55,8.0,14.0,38,0.01,,,0.04,477.000000,,2013-01-16 22:12:00,
2013-01-16 15:22:00,33.0,10.0,-100.00,NE,55,8.0,14.0,38,0.01,,,0.04,477.000000,,2013-01-16 22:22:00,
2013-01-16 15:33:00,33.0,10.0,-100.00,NE,55,8.0,14.0,38,0.01,,,0.04,477.000000,,2013-01-16 22:33:00,
2013-01-16 15:42:00,33.0,10.0,-100.00,NE,55,8.0,14.0,38,0.01,,,0.04,477.000000,,2013-01-16 22:42:00,
2013-01-16 16:12:00,33.0,10.0,-100.00,ENE,68,5.0,15.0,38,0.00,,,0.04,342.000000,,2013-01-16 23:12:00,
2013-01-16 16:22:00,33.0,10.0,-100.00,ENE,68,5.0,15.0,38,0.00,,,0.04,342.000000,,2013-01-16 23:22:00,
2013-01-16 16:32:00,33.0,10.0,-100.00,ENE,68,5.0,15.0,38,0.00,,,0.04,342.000000,,2013-01-16 23:32:00,
2013-01-16 16:42:00,33.0,10.0,-100.00,ENE,68,5.0,15.0,38,0.00,,,0.04,342.000000,,2013-01-16 23:42:00,
2013-01-16 17:12:00,30.0,9.0,-100.00,ENE,57,4.0,10.0,40,0.00,,,0.04,170.000000,,2013-01-17 00:12:00,
2013-01-16 17:22:00,30.0,9.0,-100.00,ENE,57,4.0,10.0,40,0.00,,,0.04,170.000000,,2013-01-17 00:22:00,
2013-01-16 17:32:00,30.0,9.0,-100.00,ENE,57,4.0,10.0,40,0.00,,,0.04,170.000000,,2013-01-17 00:32:00,
2013-01-16 17:42:00,30.0,9.0,-100.00,ENE,57,4.0,10.0,40,0.00,,,0.04,170.000000,,2013-01-17 00:42:00,
2013-01-16 18:12:00,23.0,7.0,-100.00,SE,132,4.0,6.0,49,0.00,,,0.04,8.000000,,2013-01-17 01:12:00,
2013-01-16 18:22:00,23.0,7.0,-100.00,SE,132,4.0,6.0,49,0.00,,,0.04,8.000000,,2013-01-17 01:22:00,
2013-01-16 18:32:00,23.0,7.0,-100.00,SE,132,4.0,6.0,49,0.00,,,0.04,8.000000,,2013-01-17 01:32:00,
2013-01-16 18:42:00,23.0,7.0,-100.00,SE,132,4.0,6.0,49,0.00,,,0.04,8.000000,,2013-01-17 01:42:00,
2013-01-16 19:12:00,20.0,6.0,-100.00,SE,139,5.0,7.0,54,0.00,,,0.04,0.000000,,2013-01-17 02:12:00,
2013-01-16 19:22:00,20.0,6.0,-100.00,SE,139,5.0,7.0,54,0.00,,,0.04,0.000000,,2013-01-17 02:22:00,
2013-01-16 19:32:00,20.0,6.0,-100.00,SE,139,5.0,7.0,54,0.00,,,0.04,0.000000,,2013-01-17 02:32:00,
2013-01-16 19:42:00,20.0,6.0,-100.00,SE,139,5.0,7.0,54,0.00,,,0.04,0.000000,,2013-01-17 02:42:00,
2013-01-16 20:12:00,21.0,5.0,-100.00,SE,136,5.0,7.0,50,0.00,,,0.04,0.000000,,2013-01-17 03:12:00,
2013-01-16 20:22:00,21.0,5.0,-100.00,SE,136,5.0,7.0,50,0.00,,,0.04,0.000000,,2013-01-17 03:22:00,
2013-01-16 20:32:00,21.0,5.0,-100.00,SE,136,5.0,7.0,50,0.00,,,0.04,0.000000,,2013-01-17 03:32:00,
2013-01-16 20:42:00,21.0,5.0,-100.00,SE,136,5.0,7.0,50,0.00,,,0.04,0.000000,,2013-01-17 03:42:00,
2013-01-16 21:12:00,21.0,5.0,-100.00,SE,133,7.0,8.0,49,0.00,,,0.04,0.000000,,2013-01-17 04:12:00,
2013-01-16 21:22:00,21.0,5.0,-100.00,SE,133,7.0,8.0,49,0.00,,,0.04,0.000000,,2013-01-17 04:22:00,
2013-01-16 21:32:00,21.0,5.0,-100.00,SE,133,7.0,8.0,49,0.00,,,0.04,0.000000,,2013-01-17 04:32:00,
2013-01-16 21:42:00,21.0,5.0,-100.00,SE,133,7.0,8.0,49,0.00,,,0.04,0.000000,,2013-01-17 04:42:00,
2013-01-16 22:12:00,22.0,5.0,-100.00,SE,134,7.0,9.0,48,0.00,,,0.04,0.000000,,2013-01-17 05:12:00,
2013-01-16 22:22:00,22.0,5.0,-100.00,SE,134,7.0,9.0,48,0.00,,,0.04,0.000000,,2013-01-17 05:22:00,
2013-01-16 22:32:00,22.0,5.0,-100.00,SE,134,7.0,9.0,48,0.00,,,0.04,0.000000,,2013-01-17 05:32:00,
2013-01-16 22:42:00,22.0,5.0,-100.00,SE,134,7.0,9.0,48,0.00,,,0.04,0.000000,,2013-01-17 05:42:00,
2013-01-16 23:12:00,24.0,5.0,-100.00,SE,135,6.0,8.0,44,0.00,,,0.04,0.000000,,2013-01-17 06:12:00,
2013-01-16 23:22:00,24.0,5.0,-100.00,SE,135,6.0,8.0,44,0.00,,,0.04,0.000000,,2013-01-17 06:22:00,
2013-01-16 23:32:00,24.0,5.0,-100.00,SE,135,6.0,8.0,44,0.00,,,0.04,0.000000,,2013-01-17 06:32:00,
2013-01-16 23:42:00,24.0,5.0,-100.00,SE,135,6.0,8.0,44,0.00,,,0.04,0.000000,,2013-01-17 06:42:00,